Aeroporto :
LOGIN :

Iscrizione | Disclaimer

   EN    FR    IT 

 










Sommario :    VFR   VFR Marginale   IFR   IFR Intensivo   IFR Molto Intensivo
Visibilità : 
Base nubi : 
>= 8 km
>= 3000ft
5 / 8 km
1000 / 3000 ft
1500m / 5 km
500 / 1000 ft
800 / 1500m
200 / 500 ft
< 800m
< 200 ft
Simboli :   Temporali  Nebbia  Neve Forte  Precipitazioni Forti  Vento > 20 kt
SIGMETs :   Varie  Temporali  Ghiacco  Turbolenza  Onda orograficha  Ceneri Vulcaniche







- Altitudine del aeroporto : 527 ft
- Codice IATA : DBV


LDDU - Dubrovnik

ULTIMO METAR :
  • 210600Z 05006KT 360V080 9999 2000E PRFG NSC 10/01 Q1024 BECMG FM0630 CAVOK

METARs OBSOLETI :
  • 210530Z VRB04KT CAVOK 09/01 Q1024 NOSIG
  • 210500Z VRB04KT CAVOK 10/00 Q1024 NOSIG
  • 210430Z 06007KT CAVOK 09/02 Q1024 NOSIG
  • 210400Z 04006KT 010V070 CAVOK 10/01 Q1024 NOSIG
  • 210330Z 07005KT 040V110 CAVOK 10/02 Q1024 NOSIG

TAF TAF LDDU
Valido dal 21 a 06 ore il 22 a 06 ore UTC


210525Z 2106/2206 08006KT CAVOK TX15/2112Z TN07/2203Z
BECMG 2109/2111 26008KT
BECMG 2117/2119 05007KT
Nessun NOTAM noto per questo aeroporto.



MetMap, La meteo Aeronautica in un colpo d'occhio ! - Copyright ORBIFLY Dicembre 2007 - Disclaimer

ORBIFLY MET'MAP TEAM :

Programmazione e sviluppo : Alexandra Zaïnal
Concezione e sviluppo : Baudouin d'Aumeries
Co-Programmazione e sviluppo : Marc-Olivier Méhu
Supporto tecnico e logistico : Manuel Goepfert
Aiuto per la traduzione : Arnaldo La Scala

Contatto : metmap@orbifly.com




FONTI E CREDITI :

   NOAA